Latest Weather Observations for Ernabella/Pukatja

IDD60801

Issued at 9:01 am CST Sunday 14 February 2016 (issued every 30 minutes, with the page automatically refreshed every 10 minutes)

About weather observations | Map of weather stations | Latest weather observations for NT | Other Formats
Station Details ID: 016097 Name: PUKATJA Lat: -26.26 Lon: 132.18 Height: 703.2 m
Data from the previous 72 hours. | See also: Recent months at Ernabella/Pukatja
Date/Time
CST
Temp
°C
App
Temp
°C
Dew
Point
Rel
Hum
%
Delta-T
°C
Wind Press
QNH
hPa
Press
MSL
hPa
Rain
since 9 am
mm
Dir
 
Spd
km/h
Gust
km/h
Spd
kts
Gust
kts
14/09:00am 25.7 22.0 9.5 36 9.2 S 19 30 10 16 1017.9 - 0.0
14/08:30am 25.2 22.2 9.1 36 9.0 SSW 15 20 8 11 1017.7 - 0.0
14/08:00am 24.6 21.9 9.0 37 8.7 SW 13 19 7 10 1017.4 1012.2 0.0
14/07:30am 23.5 19.7 9.1 40 8.0 WSW 19 26 10 14 1017.2 - 0.0
14/07:00am 23.2 20.5 8.9 40 7.9 SW 13 17 7 9 1016.6 - 0.0
14/06:30am 23.4 20.6 8.7 39 8.1 SSW 13 19 7 10 1016.3 - 0.0
14/06:00am 23.7 21.2 8.2 37 8.5 SSW 11 17 6 9 1015.8 - 0.0
14/05:30am 24.6 21.4 8.5 36 8.9 S 15 22 8 12 1015.5 - 0.0
14/05:00am 24.9 22.4 8.0 34 9.3 SW 11 19 6 10 1015.1 1009.9 0.0
14/04:30am 25.2 21.5 6.4 30 10.1 WSW 15 22 8 12 1014.8 - 0.0
14/04:00am 26.2 21.4 7.3 30 10.3 SSE 22 33 12 18 1014.5 - 0.0
14/03:30am 26.5 19.6 6.5 28 10.8 SSE 32 44 17 24 1014.1 - 0.0
14/03:00am 26.7 19.8 4.5 24 11.6 SSE 30 39 16 21 1014.0 - 0.0
14/02:30am 27.3 20.8 0.1 17 13.2 SSE 24 33 13 18 1014.3 - 0.0
14/02:00am 30.0 22.9 -7.8 8 16.3 SSE 22 32 12 17 1014.2 1009.0 0.0
14/01:30am 29.5 23.0 -8.2 8 16.1 SSE 19 20 10 11 1014.1 - 0.0
14/01:00am 29.9 23.8 -7.9 8 16.3 SSE 17 20 9 11 1014.2 - 0.0
14/12:30am 30.3 24.2 -7.6 8 16.5 SSE 17 20 9 11 1014.5 - 0.0
14/12:00am 31.2 24.6 -8.6 7 17.1 SE 19 30 10 16 1014.6 - 0.0
 
Date/Time
CST
Temp
°C
App
Temp
°C
Dew
Point
Rel
Hum
%
Delta-T
°C
Wind Press
QNH
hPa
Press
MSL
hPa
Rain
since 9 am
mm
Dir
 
Spd
km/h
Gust
km/h
Spd
kts
Gust
kts
13/11:30pm 31.1 25.4 -7.0 8 16.8 SSE 15 20 8 11 1014.8 - 0.0
13/11:00pm 31.0 25.3 -7.1 8 16.8 SSE 15 17 8 9 1014.9 1009.7 0.0
13/10:30pm 31.5 25.3 -8.4 7 17.3 SSE 17 20 9 11 1014.9 - 0.0
13/10:00pm 32.6 27.3 -7.6 7 17.8 SE 13 20 7 11 1014.8 - 0.0
13/09:30pm 32.4 27.1 -7.8 7 17.7 SE 13 15 7 8 1014.6 - 0.0
13/09:00pm 33.5 28.1 -9.0 6 18.5 SE 13 17 7 9 1014.4 - 0.0
13/08:30pm 34.2 29.2 -8.5 6 18.9 SSE 11 17 6 9 1014.2 - 0.0
13/08:00pm 33.2 28.1 -9.2 6 18.4 SSE 11 15 6 8 1013.8 1008.6 0.0
13/07:30pm 35.2 29.5 -7.7 6 19.4 S 15 19 8 10 1013.4 - 0.0
13/07:00pm 36.6 30.4 -9.1 5 20.4 S 17 24 9 13 1013.0 - 0.0
13/06:30pm 37.1 31.3 -8.7 5 20.6 SSE 15 22 8 12 1012.9 - 0.0
13/06:00pm 37.7 31.2 -8.3 5 20.9 SSE 19 26 10 14 1012.7 - 0.0
13/05:30pm 38.9 32.2 -7.5 5 21.6 S 20 30 11 16 1012.6 - 0.0
13/05:00pm 38.7 32.2 -7.6 5 21.5 SSE 19 32 10 17 1012.7 1007.4 0.0
13/04:30pm 39.2 31.0 -7.3 5 21.7 S 28 39 15 21 1012.8 - 0.0
13/04:00pm 39.0 33.3 -7.4 5 21.6 SSE 15 30 8 16 1012.9 - 0.0
13/03:30pm 39.7 33.7 -6.9 5 22.0 S 17 24 9 13 1013.2 - 0.0
13/03:00pm 39.2 32.2 -7.3 5 21.7 SSW 22 30 12 16 1013.3 - 0.0
13/02:30pm 38.6 32.5 -7.7 5 21.4 W 17 24 9 13 1013.4 - 0.0
13/02:00pm 38.7 33.8 -7.6 5 21.5 SW 11 19 6 10 1013.6 1008.4 0.0
13/01:30pm 38.5 33.4 -5.4 6 21.0 SE 13 20 7 11 1014.3 - 0.0
13/01:00pm 37.3 32.1 -6.3 6 20.4 WSW 13 20 7 11 1014.8 - 0.0
13/12:30pm 36.4 32.1 -4.9 7 19.7 NNW 9 19 5 10 1015.0 - 0.0
13/12:00pm 36.8 32.5 -4.6 7 19.8 NW 9 17 5 9 1015.6 - 0.0
13/11:30am 35.7 31.0 -5.4 7 19.3 N 11 19 6 10 1016.0 - 0.0
13/11:00am 35.9 31.2 -5.2 7 19.4 E 11 19 6 10 1016.3 1011.1 0.0
13/10:30am 35.4 30.3 -5.6 7 19.2 NE 13 20 7 11 1016.5 - 0.0
13/10:00am 34.3 28.9 -4.6 8 18.3 NE 15 24 8 13 1016.7 - 0.0
13/09:30am 32.8 27.3 -5.7 8 17.6 NE 15 22 8 12 1017.0 - 0.0
13/09:00am 32.1 26.1 -6.3 8 17.3 ENE 17 24 9 13 1017.1 - 0.0
13/08:30am 31.4 26.3 -5.2 9 16.7 E 13 19 7 10 1017.1 - 0.0
13/08:00am 29.6 25.6 -5.2 10 15.6 ENE 7 11 4 6 1017.0 1011.8 0.0
13/07:30am 24.9 22.5 -3.5 15 12.7 CALM 0 0 0 0 1016.6 - 0.0
13/07:00am 21.0 18.8 -1.5 22 10.1 CALM 0 0 0 0 1016.4 - 0.0
13/06:30am 20.4 18.1 -2.6 21 10.1 CALM 0 0 0 0 1016.1 - 0.0
13/06:00am 20.7 18.2 -3.7 19 10.5 CALM 0 0 0 0 1015.8 - 0.0
13/05:30am 21.2 17.6 -3.3 19 10.6 N 6 7 3 4 1015.5 - 0.0
13/05:00am 20.1 16.5 -2.3 22 9.8 E 7 9 4 5 1015.2 1010.0 0.0
13/04:30am 22.0 18.2 -3.4 18 11.1 ENE 7 11 4 6 1015.1 - 0.0
13/04:00am 22.9 18.7 -4.2 16 11.7 E 9 13 5 7 1015.1 - 0.0
13/03:30am 25.3 21.0 -5.1 13 13.2 E 9 11 5 6 1014.9 - 0.0
13/03:00am 26.8 21.6 -6.1 11 14.2 SE 13 20 7 11 1014.7 - 0.0
13/02:30am 25.9 21.5 -5.6 12 13.7 E 9 20 5 11 1014.9 - 0.0
13/02:00am 29.1 23.2 -5.6 10 15.4 SSE 17 22 9 12 1015.0 1009.8 0.0
13/01:30am 29.2 22.9 -5.5 10 15.5 SSE 19 24 10 13 1015.1 - 0.0
13/01:00am 29.7 23.1 -6.5 9 15.9 SE 20 24 11 13 1015.2 - 0.0
13/12:30am 29.8 23.4 -6.4 9 16.0 SE 19 24 10 13 1015.6 - 0.0
13/12:00am 29.9 23.9 -6.4 9 16.0 SSE 17 24 9 13 1015.8 - 0.0
 
Date/Time
CST
Temp
°C
App
Temp
°C
Dew
Point
Rel
Hum
%
Delta-T
°C
Wind Press
QNH
hPa
Press
MSL
hPa
Rain
since 9 am
mm
Dir
 
Spd
km/h
Gust
km/h
Spd
kts
Gust
kts
12/11:30pm 30.3 24.4 -6.1 9 16.2 SSE 17 24 9 13 1015.8 - 0.0
12/11:00pm 30.8 24.9 -5.7 9 16.4 SE 17 26 9 14 1015.7 1010.5 0.0
12/10:30pm 31.5 25.6 -5.2 9 16.8 SE 17 24 9 13 1015.6 - 0.0
12/10:00pm 31.4 25.9 -5.2 9 16.7 SE 15 22 8 12 1015.7 - 0.0
12/09:30pm 32.3 27.3 -4.6 9 17.1 SE 13 20 7 11 1015.5 - 0.0
12/09:00pm 32.4 27.0 -4.5 9 17.2 SSE 15 20 8 11 1015.2 - 0.0
12/08:30pm 33.1 27.8 -4.0 9 17.5 S 15 19 8 10 1015.0 - 0.0
12/08:00pm 33.5 28.6 -3.7 9 17.7 S 13 17 7 9 1014.8 1009.6 0.0
12/07:30pm 34.2 29.2 -4.7 8 18.3 S 13 19 7 10 1014.4 - 0.0
12/07:00pm 35.5 30.6 -3.8 8 18.9 SSE 13 22 7 12 1014.1 - 0.0
12/06:30pm 36.5 31.3 -3.0 8 19.4 S 15 20 8 11 1013.8 - 0.0
12/06:00pm 36.8 30.6 -4.6 7 19.8 SSW 19 26 10 14 1013.5 - 0.0
12/05:30pm 36.5 31.8 -4.8 7 19.7 SE 11 30 6 16 1013.4 - 0.0
12/05:00pm 36.9 30.7 -4.5 7 19.9 SSE 19 28 10 15 1013.4 1008.2 0.0
12/04:30pm 37.8 30.8 -3.9 7 20.3 SW 24 33 13 18 1013.4 - 0.0
12/04:00pm 37.6 32.3 -4.0 7 20.2 S 15 22 8 12 1013.6 - 0.0
12/03:30pm 38.3 31.5 -5.5 6 20.9 SSW 22 37 12 20 1013.7 - 0.0
12/03:00pm 37.7 32.9 -2.2 8 20.0 SSW 13 24 7 13 1014.2 - 0.0
12/02:30pm 37.8 33.7 -0.5 9 19.7 SSW 11 22 6 12 1014.6 - 0.0
12/02:00pm 36.2 31.1 -1.7 9 18.9 SSW 15 28 8 15 1015.0 1009.8 0.0
12/01:30pm 36.7 32.8 -1.3 9 19.2 SSW 9 15 5 8 1015.5 - 0.0
12/01:00pm 35.1 30.5 -1.1 10 18.1 E 13 22 7 12 1016.0 - 0.0
12/12:30pm 35.2 30.6 -1.0 10 18.2 E 13 22 7 12 1016.3 - 0.0
12/12:00pm 35.5 31.3 -0.8 10 18.3 E 11 20 6 11 1016.7 - 0.0
12/11:30am 33.9 29.0 -0.7 11 17.3 E 15 22 8 12 1017.3 - 0.0
12/11:00am 32.4 27.3 0.5 13 16.1 ENE 17 20 9 11 1017.6 1012.4 0.0
12/10:30am 31.7 27.0 1.0 14 15.6 E 15 20 8 11 1017.9 - 0.0
12/10:00am 30.5 25.1 1.0 15 14.9 ENE 19 26 10 14 1018.2 - 0.0
12/09:30am 29.0 24.0 1.5 17 13.8 ESE 17 24 9 13 1018.5 - 0.0
12/09:00am 28.2 23.4 2.4 19 13.1 ESE 17 24 9 13 1018.6 - 0.0
12/08:30am 27.0 22.5 4.1 23 11.9 SE 17 28 9 15 1018.5 - 0.0
12/08:00am 25.5 21.6 3.5 24 11.2 SE 13 26 7 14 1018.5 1013.3 0.0
12/07:30am 25.0 21.0 3.0 24 11.1 SE 13 20 7 11 1018.5 - 0.0
12/07:00am 24.4 20.7 2.5 24 10.9 SE 11 22 6 12 1018.2 - 0.0
12/06:30am 24.2 19.7 2.4 24 10.8 SE 15 22 8 12 1017.6 - 0.0
12/06:00am 24.5 19.4 0.8 21 11.4 SE 17 24 9 13 1017.3 - 0.0
12/05:30am 24.7 19.3 -1.2 18 12.1 SE 17 24 9 13 1017.0 - 0.0
12/05:00am 25.5 19.9 -3.0 15 12.9 SE 17 24 9 13 1016.6 1011.4 0.0
12/04:30am 25.6 20.3 -3.8 14 13.1 SE 15 20 8 11 1016.4 - 0.0
12/04:00am 26.3 20.2 -4.3 13 13.6 SE 19 28 10 15 1016.4 - 0.0
12/03:30am 26.7 20.3 -5.0 12 14.0 SE 20 33 11 18 1016.3 - 0.0
12/03:00am 27.2 20.3 -5.8 11 14.4 SE 22 32 12 17 1016.1 - 0.0
12/02:30am 27.6 20.8 -5.5 11 14.6 SSE 22 32 12 17 1016.0 - 0.0
12/02:00am 27.9 21.1 -5.2 11 14.7 SSE 22 35 12 19 1016.1 1010.9 0.0
12/01:30am 28.0 21.2 -5.2 11 14.8 SSE 22 33 12 18 1016.3 - 0.0
12/01:00am 28.6 21.7 -6.0 10 15.2 SSE 22 33 12 18 1016.5 - 0.0
12/12:30am 29.2 22.0 -5.5 10 15.5 SSE 24 41 13 22 1016.6 - 0.0
12/12:00am 29.4 22.6 -5.4 10 15.6 SSE 22 30 12 16 1016.7 - 0.0
 
Date/Time
CST
Temp
°C
App
Temp
°C
Dew
Point
Rel
Hum
%
Delta-T
°C
Wind Press
QNH
hPa
Press
MSL
hPa
Rain
since 9 am
mm
Dir
 
Spd
km/h
Gust
km/h
Spd
kts
Gust
kts
11/11:30pm 29.7 22.4 -6.5 9 15.9 SSE 24 35 13 19 1016.6 - 0.0
11/11:00pm 30.1 22.4 -6.2 9 16.1 SSE 26 37 14 20 1016.7 1011.5 0.0
11/10:30pm 30.6 22.6 -5.8 9 16.3 S 28 37 15 20 1016.5 - 0.0
11/10:00pm 31.2 25.1 -2.7 11 16.1 S 20 30 11 16 1016.3 - 0.0
11/09:30pm 31.8 25.6 -3.5 10 16.6 SSE 20 26 11 14 1016.1 - 0.0
11/09:00pm 32.5 26.3 -3.0 10 17.0 S 20 30 11 16 1016.0 - 0.0
11/08:30pm 32.4 27.2 -3.1 10 16.9 S 15 22 8 12 1015.6 - 0.0
11/08:00pm 33.3 26.8 -2.4 10 17.3 S 22 28 12 15 1015.3 1010.1 0.0
11/07:30pm 33.5 27.6 -2.3 10 17.4 S 19 26 10 14 1015.0 - 0.0
11/07:00pm 34.6 28.8 -1.4 10 17.9 S 19 28 10 15 1014.6 - 0.0
11/06:30pm 35.5 29.6 -2.2 9 18.6 S 19 28 10 15 1014.2 - 0.0
11/06:00pm 36.2 30.2 -1.7 9 18.9 SSW 20 30 11 16 1013.8 - 0.0
11/05:30pm 36.6 32.3 -1.4 9 19.1 SSE 11 26 6 14 1013.7 - 0.0
11/05:00pm 37.2 31.6 -2.5 8 19.7 SSE 17 30 9 16 1013.7 1008.5 0.0
11/04:30pm 36.7 31.5 -2.9 8 19.5 S 15 24 8 13 1013.7 - 0.0
11/04:00pm 37.7 31.2 -2.2 8 20.0 S 22 35 12 19 1013.8 - 0.0
11/03:30pm 37.3 30.8 -2.4 8 19.8 SSW 22 30 12 16 1013.8 - 0.0
11/03:00pm 36.5 31.1 -1.4 9 19.1 WSW 17 28 9 15 1014.3 - 0.0
11/02:30pm 36.3 30.9 -1.6 9 19.0 SSW 17 28 9 15 1014.6 - 0.0
11/02:00pm 36.4 30.6 -1.5 9 19.0 SE 19 37 10 20 1014.7 1009.5 0.0
11/01:30pm 35.1 30.9 -1.1 10 18.1 NNE 11 20 6 11 1015.2 - 0.0
11/01:00pm 34.9 31.2 0.1 11 17.8 N 9 13 5 7 1015.7 - 0.0
11/12:30pm 34.1 30.5 0.7 12 17.1 ENE 9 17 5 9 1016.2 - 0.0
11/12:00pm 33.5 29.6 1.3 13 16.6 ESE 11 17 6 9 1016.6 - 0.0
11/11:30am 33.2 29.5 2.1 14 16.2 SSE 11 24 6 13 1017.0 - 0.0
11/11:00am 31.7 27.4 1.0 14 15.6 SE 13 19 7 10 1017.3 1012.1 0.0
11/10:30am 30.3 26.0 0.8 15 14.8 ESE 13 17 7 9 1017.5 - 0.0
11/10:00am 30.0 25.6 0.6 15 14.7 ESE 13 20 7 11 1017.6 - 0.0
11/09:30am 28.8 24.3 -0.4 15 14.2 SE 13 19 7 10 1017.8 - 0.0
11/09:00am 28.8 25.0 -0.4 15 14.2 SSE 9 17 5 9 1017.7 - 0.0
11/08:30am 27.9 23.9 -2.0 14 14.1 SSW 9 15 5 8 1017.5 - 0.0

Other Formats:

Comma delimited format used in spreadsheet applications
http://www.bom.gov.au/fwo/IDD60801/IDD60801.94474.axf

JavaScript Object Notation format (JSON) in row-major order
http://www.bom.gov.au/fwo/IDD60801/IDD60801.94474.json